sensor_id;sensor_type;location;lat;lon;timestamp;P1;durP1;ratioP1;P2;durP2;ratioP2
58360;SDS011;44164;44.954;10.068;2022-08-05T00:01:01;5.25;;;1.13;;
58360;SDS011;44164;44.954;10.068;2022-08-05T00:03:27;2.15;;;1.27;;
58360;SDS011;44164;44.954;10.068;2022-08-05T00:05:53;2.35;;;1.20;;
58360;SDS011;44164;44.954;10.068;2022-08-05T00:08:19;2.05;;;1.30;;
58360;SDS011;44164;44.954;10.068;2022-08-05T00:10:45;1.48;;;1.10;;
58360;SDS011;44164;44.954;10.068;2022-08-05T00:13:12;1.45;;;1.00;;
58360;SDS011;44164;44.954;10.068;2022-08-05T00:15:38;2.08;;;1.20;;
58360;SDS011;44164;44.954;10.068;2022-08-05T00:18:04;2.25;;;1.27;;
58360;SDS011;44164;44.954;10.068;2022-08-05T00:20:30;2.20;;;1.23;;
58360;SDS011;44164;44.954;10.068;2022-08-05T00:22:56;1.70;;;1.17;;
58360;SDS011;44164;44.954;10.068;2022-08-05T00:25:22;3.35;;;1.42;;
58360;SDS011;44164;44.954;10.068;2022-08-05T00:27:48;2.80;;;1.17;;
58360;SDS011;44164;44.954;10.068;2022-08-05T00:30:15;1.90;;;1.00;;
58360;SDS011;44164;44.954;10.068;2022-08-05T00:32:41;2.20;;;1.30;;
58360;SDS011;44164;44.954;10.068;2022-08-05T00:35:07;2.78;;;1.30;;
58360;SDS011;44164;44.954;10.068;2022-08-05T00:37:33;1.80;;;1.20;;
58360;SDS011;44164;44.954;10.068;2022-08-05T00:39:59;2.85;;;1.60;;
58360;SDS011;44164;44.954;10.068;2022-08-05T00:42:32;2.25;;;1.38;;
58360;SDS011;44164;44.954;10.068;2022-08-05T00:45:00;2.60;;;1.27;;
58360;SDS011;44164;44.954;10.068;2022-08-05T00:47:27;2.20;;;1.25;;
58360;SDS011;44164;44.954;10.068;2022-08-05T00:49:54;2.92;;;1.45;;
58360;SDS011;44164;44.954;10.068;2022-08-05T00:52:20;3.60;;;1.27;;
58360;SDS011;44164;44.954;10.068;2022-08-05T00:54:46;2.05;;;1.35;;
58360;SDS011;44164;44.954;10.068;2022-08-05T00:57:12;2.00;;;1.42;;
58360;SDS011;44164;44.954;10.068;2022-08-05T00:59:38;2.38;;;1.35;;
58360;SDS011;44164;44.954;10.068;2022-08-05T01:02:04;3.28;;;1.70;;
58360;SDS011;44164;44.954;10.068;2022-08-05T01:04:30;3.50;;;1.50;;
58360;SDS011;44164;44.954;10.068;2022-08-05T01:06:57;2.17;;;1.20;;
58360;SDS011;44164;44.954;10.068;2022-08-05T01:09:23;3.13;;;1.50;;
58360;SDS011;44164;44.954;10.068;2022-08-05T01:11:50;2.33;;;1.40;;
58360;SDS011;44164;44.954;10.068;2022-08-05T01:16:51;1.80;;;1.27;;
58360;SDS011;44164;44.954;10.068;2022-08-05T01:22:13;2.15;;;1.20;;
58360;SDS011;44164;44.954;10.068;2022-08-05T01:24:51;3.47;;;1.38;;
58360;SDS011;44164;44.954;10.068;2022-08-05T01:30:38;2.45;;;1.60;;
58360;SDS011;44164;44.954;10.068;2022-08-05T01:33:16;3.03;;;1.92;;
58360;SDS011;44164;44.954;10.068;2022-08-05T01:35:44;2.20;;;1.40;;
58360;SDS011;44164;44.954;10.068;2022-08-05T01:38:12;2.40;;;1.70;;
58360;SDS011;44164;44.954;10.068;2022-08-05T01:40:39;1.95;;;1.73;;
58360;SDS011;44164;44.954;10.068;2022-08-05T01:43:05;2.10;;;1.40;;
58360;SDS011;44164;44.954;10.068;2022-08-05T01:45:32;3.33;;;2.10;;
58360;SDS011;44164;44.954;10.068;2022-08-05T01:47:59;2.58;;;1.95;;
58360;SDS011;44164;44.954;10.068;2022-08-05T01:50:28;2.35;;;1.77;;
58360;SDS011;44164;44.954;10.068;2022-08-05T01:52:57;2.92;;;1.65;;
58360;SDS011;44164;44.954;10.068;2022-08-05T01:55:26;4.15;;;1.50;;
58360;SDS011;44164;44.954;10.068;2022-08-05T01:57:53;2.47;;;1.52;;
58360;SDS011;44164;44.954;10.068;2022-08-05T02:00:20;1.77;;;1.35;;
58360;SDS011;44164;44.954;10.068;2022-08-05T02:03:08;2.92;;;1.70;;
58360;SDS011;44164;44.954;10.068;2022-08-05T02:05:35;3.03;;;1.67;;
58360;SDS011;44164;44.954;10.068;2022-08-05T02:08:02;4.90;;;1.65;;
58360;SDS011;44164;44.954;10.068;2022-08-05T02:10:35;3.00;;;1.70;;
58360;SDS011;44164;44.954;10.068;2022-08-05T02:13:16;1.98;;;1.42;;
58360;SDS011;44164;44.954;10.068;2022-08-05T02:15:53;3.55;;;1.60;;
58360;SDS011;44164;44.954;10.068;2022-08-05T02:18:24;2.60;;;1.45;;
58360;SDS011;44164;44.954;10.068;2022-08-05T02:23:23;2.22;;;1.65;;
58360;SDS011;44164;44.954;10.068;2022-08-05T02:25:53;3.63;;;1.58;;
58360;SDS011;44164;44.954;10.068;2022-08-05T02:28:22;2.70;;;1.50;;
58360;SDS011;44164;44.954;10.068;2022-08-05T02:31:00;2.97;;;1.83;;
58360;SDS011;44164;44.954;10.068;2022-08-05T02:33:29;2.63;;;1.67;;
58360;SDS011;44164;44.954;10.068;2022-08-05T02:36:00;3.35;;;1.75;;
58360;SDS011;44164;44.954;10.068;2022-08-05T02:40:53;2.00;;;1.23;;
58360;SDS011;44164;44.954;10.068;2022-08-05T02:43:20;2.65;;;1.50;;
58360;SDS011;44164;44.954;10.068;2022-08-05T02:45:47;2.03;;;1.60;;
58360;SDS011;44164;44.954;10.068;2022-08-05T02:48:14;2.00;;;1.50;;
58360;SDS011;44164;44.954;10.068;2022-08-05T02:50:40;2.40;;;1.60;;
58360;SDS011;44164;44.954;10.068;2022-08-05T02:53:07;2.88;;;1.65;;
58360;SDS011;44164;44.954;10.068;2022-08-05T02:55:34;2.40;;;1.45;;
58360;SDS011;44164;44.954;10.068;2022-08-05T02:58:00;1.80;;;1.40;;
58360;SDS011;44164;44.954;10.068;2022-08-05T03:00:27;2.00;;;1.40;;
58360;SDS011;44164;44.954;10.068;2022-08-05T03:02:53;2.53;;;1.50;;
58360;SDS011;44164;44.954;10.068;2022-08-05T03:05:22;3.30;;;1.67;;
58360;SDS011;44164;44.954;10.068;2022-08-05T03:07:48;2.42;;;1.60;;
58360;SDS011;44164;44.954;10.068;2022-08-05T03:10:15;2.53;;;1.50;;
58360;SDS011;44164;44.954;10.068;2022-08-05T03:12:41;2.25;;;1.70;;
58360;SDS011;44164;44.954;10.068;2022-08-05T03:15:08;3.10;;;1.70;;
58360;SDS011;44164;44.954;10.068;2022-08-05T03:17:35;2.08;;;1.40;;
58360;SDS011;44164;44.954;10.068;2022-08-05T03:20:03;2.83;;;1.42;;
58360;SDS011;44164;44.954;10.068;2022-08-05T03:22:30;1.90;;;1.35;;
58360;SDS011;44164;44.954;10.068;2022-08-05T03:24:56;2.40;;;1.45;;
58360;SDS011;44164;44.954;10.068;2022-08-05T03:27:22;1.92;;;1.30;;
58360;SDS011;44164;44.954;10.068;2022-08-05T03:29:49;1.92;;;1.42;;
58360;SDS011;44164;44.954;10.068;2022-08-05T03:32:15;2.08;;;1.60;;
58360;SDS011;44164;44.954;10.068;2022-08-05T03:34:42;4.60;;;1.45;;
58360;SDS011;44164;44.954;10.068;2022-08-05T03:37:09;1.85;;;1.35;;
58360;SDS011;44164;44.954;10.068;2022-08-05T03:39:35;2.10;;;1.30;;
58360;SDS011;44164;44.954;10.068;2022-08-05T03:42:02;2.72;;;1.60;;
58360;SDS011;44164;44.954;10.068;2022-08-05T03:44:28;2.58;;;1.40;;
58360;SDS011;44164;44.954;10.068;2022-08-05T03:46:54;2.85;;;1.85;;
58360;SDS011;44164;44.954;10.068;2022-08-05T03:49:20;3.15;;;1.55;;
58360;SDS011;44164;44.954;10.068;2022-08-05T03:54:20;2.70;;;1.40;;
58360;SDS011;44164;44.954;10.068;2022-08-05T03:57:13;4.60;;;1.80;;
58360;SDS011;44164;44.954;10.068;2022-08-05T03:59:41;2.28;;;1.67;;
58360;SDS011;44164;44.954;10.068;2022-08-05T04:02:10;2.95;;;1.58;;
58360;SDS011;44164;44.954;10.068;2022-08-05T04:04:36;2.92;;;1.70;;
58360;SDS011;44164;44.954;10.068;2022-08-05T04:07:02;2.38;;;1.77;;
58360;SDS011;44164;44.954;10.068;2022-08-05T04:09:30;1.92;;;1.40;;
58360;SDS011;44164;44.954;10.068;2022-08-05T04:11:56;1.85;;;1.38;;
58360;SDS011;44164;44.954;10.068;2022-08-05T04:14:24;2.47;;;1.73;;
58360;SDS011;44164;44.954;10.068;2022-08-05T04:16:51;2.50;;;1.70;;
58360;SDS011;44164;44.954;10.068;2022-08-05T04:19:18;4.05;;;1.92;;
58360;SDS011;44164;44.954;10.068;2022-08-05T04:21:44;2.00;;;1.65;;
58360;SDS011;44164;44.954;10.068;2022-08-05T04:24:10;2.72;;;1.70;;
58360;SDS011;44164;44.954;10.068;2022-08-05T04:26:37;2.25;;;1.50;;
58360;SDS011;44164;44.954;10.068;2022-08-05T04:29:03;1.85;;;1.33;;
58360;SDS011;44164;44.954;10.068;2022-08-05T04:31:29;2.95;;;1.63;;
58360;SDS011;44164;44.954;10.068;2022-08-05T04:33:55;2.67;;;1.88;;
58360;SDS011;44164;44.954;10.068;2022-08-05T04:36:21;2.08;;;1.40;;
58360;SDS011;44164;44.954;10.068;2022-08-05T04:38:47;2.15;;;1.50;;
58360;SDS011;44164;44.954;10.068;2022-08-05T04:41:13;2.55;;;1.48;;
58360;SDS011;44164;44.954;10.068;2022-08-05T04:43:39;2.10;;;1.30;;
58360;SDS011;44164;44.954;10.068;2022-08-05T04:46:06;2.20;;;1.50;;
58360;SDS011;44164;44.954;10.068;2022-08-05T04:48:32;3.72;;;1.98;;
58360;SDS011;44164;44.954;10.068;2022-08-05T04:50:58;2.47;;;1.50;;
58360;SDS011;44164;44.954;10.068;2022-08-05T04:53:24;2.55;;;1.90;;
58360;SDS011;44164;44.954;10.068;2022-08-05T04:55:50;2.55;;;1.88;;
58360;SDS011;44164;44.954;10.068;2022-08-05T04:58:16;2.50;;;1.85;;
58360;SDS011;44164;44.954;10.068;2022-08-05T05:00:43;3.28;;;1.85;;
58360;SDS011;44164;44.954;10.068;2022-08-05T05:03:09;4.47;;;2.00;;
58360;SDS011;44164;44.954;10.068;2022-08-05T05:05:36;2.58;;;1.70;;
58360;SDS011;44164;44.954;10.068;2022-08-05T05:08:07;2.28;;;1.83;;
58360;SDS011;44164;44.954;10.068;2022-08-05T05:10:37;2.38;;;1.90;;
58360;SDS011;44164;44.954;10.068;2022-08-05T05:13:13;2.42;;;1.60;;
58360;SDS011;44164;44.954;10.068;2022-08-05T05:15:40;2.85;;;1.83;;
58360;SDS011;44164;44.954;10.068;2022-08-05T05:18:07;3.70;;;1.67;;
58360;SDS011;44164;44.954;10.068;2022-08-05T05:20:34;2.13;;;1.70;;
58360;SDS011;44164;44.954;10.068;2022-08-05T05:23:00;4.18;;;2.30;;
58360;SDS011;44164;44.954;10.068;2022-08-05T05:25:30;2.70;;;1.98;;
58360;SDS011;44164;44.954;10.068;2022-08-05T05:27:56;8.35;;;7.53;;
58360;SDS011;44164;44.954;10.068;2022-08-05T05:30:23;11.05;;;10.00;;
58360;SDS011;44164;44.954;10.068;2022-08-05T05:32:49;6.40;;;5.80;;
58360;SDS011;44164;44.954;10.068;2022-08-05T05:35:15;7.20;;;3.65;;
58360;SDS011;44164;44.954;10.068;2022-08-05T05:38:00;3.65;;;2.88;;
58360;SDS011;44164;44.954;10.068;2022-08-05T05:40:31;9.95;;;9.00;;
58360;SDS011;44164;44.954;10.068;2022-08-05T05:42:57;5.30;;;4.35;;
58360;SDS011;44164;44.954;10.068;2022-08-05T05:45:24;3.72;;;3.08;;
58360;SDS011;44164;44.954;10.068;2022-08-05T05:47:50;8.30;;;7.47;;
58360;SDS011;44164;44.954;10.068;2022-08-05T05:50:17;5.53;;;3.70;;
58360;SDS011;44164;44.954;10.068;2022-08-05T05:52:45;8.83;;;7.93;;
58360;SDS011;44164;44.954;10.068;2022-08-05T05:55:12;9.63;;;8.23;;
58360;SDS011;44164;44.954;10.068;2022-08-05T05:57:40;16.10;;;10.25;;
58360;SDS011;44164;44.954;10.068;2022-08-05T06:00:07;12.98;;;10.40;;
58360;SDS011;44164;44.954;10.068;2022-08-05T06:02:40;6.65;;;5.88;;
58360;SDS011;44164;44.954;10.068;2022-08-05T06:05:07;16.67;;;12.60;;
58360;SDS011;44164;44.954;10.068;2022-08-05T06:07:34;8.10;;;6.60;;
58360;SDS011;44164;44.954;10.068;2022-08-05T06:10:00;9.80;;;8.80;;
58360;SDS011;44164;44.954;10.068;2022-08-05T06:12:26;9.48;;;7.90;;
58360;SDS011;44164;44.954;10.068;2022-08-05T06:14:52;9.00;;;7.35;;
58360;SDS011;44164;44.954;10.068;2022-08-05T06:17:19;10.27;;;8.55;;
58360;SDS011;44164;44.954;10.068;2022-08-05T06:19:45;7.30;;;5.65;;
58360;SDS011;44164;44.954;10.068;2022-08-05T06:22:11;11.07;;;7.93;;
58360;SDS011;44164;44.954;10.068;2022-08-05T06:24:40;7.63;;;6.82;;
58360;SDS011;44164;44.954;10.068;2022-08-05T06:27:06;7.32;;;6.18;;
58360;SDS011;44164;44.954;10.068;2022-08-05T06:29:32;8.43;;;7.32;;
58360;SDS011;44164;44.954;10.068;2022-08-05T06:32:00;9.80;;;6.68;;
58360;SDS011;44164;44.954;10.068;2022-08-05T06:34:27;10.65;;;8.60;;
58360;SDS011;44164;44.954;10.068;2022-08-05T06:36:53;12.65;;;9.50;;
58360;SDS011;44164;44.954;10.068;2022-08-05T06:39:19;5.95;;;5.35;;
58360;SDS011;44164;44.954;10.068;2022-08-05T06:41:45;4.70;;;3.85;;
58360;SDS011;44164;44.954;10.068;2022-08-05T06:44:11;11.93;;;7.68;;
58360;SDS011;44164;44.954;10.068;2022-08-05T06:46:38;10.63;;;8.98;;
58360;SDS011;44164;44.954;10.068;2022-08-05T06:49:04;7.75;;;6.03;;
58360;SDS011;44164;44.954;10.068;2022-08-05T06:51:30;8.27;;;5.97;;
58360;SDS011;44164;44.954;10.068;2022-08-05T06:53:57;9.52;;;6.72;;
58360;SDS011;44164;44.954;10.068;2022-08-05T06:56:24;9.10;;;7.55;;
58360;SDS011;44164;44.954;10.068;2022-08-05T06:58:50;9.00;;;6.68;;
58360;SDS011;44164;44.954;10.068;2022-08-05T07:01:16;8.07;;;5.75;;
58360;SDS011;44164;44.954;10.068;2022-08-05T07:03:42;7.70;;;5.13;;
58360;SDS011;44164;44.954;10.068;2022-08-05T07:06:08;7.68;;;5.40;;
58360;SDS011;44164;44.954;10.068;2022-08-05T07:08:34;5.43;;;4.70;;
58360;SDS011;44164;44.954;10.068;2022-08-05T07:11:00;5.53;;;4.47;;
58360;SDS011;44164;44.954;10.068;2022-08-05T07:13:27;5.03;;;4.32;;
58360;SDS011;44164;44.954;10.068;2022-08-05T07:16:12;6.60;;;4.00;;
58360;SDS011;44164;44.954;10.068;2022-08-05T07:18:56;6.35;;;3.25;;
58360;SDS011;44164;44.954;10.068;2022-08-05T07:21:22;6.03;;;3.40;;
58360;SDS011;44164;44.954;10.068;2022-08-05T07:23:48;8.00;;;3.70;;
58360;SDS011;44164;44.954;10.068;2022-08-05T07:26:14;4.88;;;3.33;;
58360;SDS011;44164;44.954;10.068;2022-08-05T07:28:41;5.63;;;3.20;;
58360;SDS011;44164;44.954;10.068;2022-08-05T07:31:07;3.63;;;2.97;;
58360;SDS011;44164;44.954;10.068;2022-08-05T07:33:33;3.92;;;3.08;;
58360;SDS011;44164;44.954;10.068;2022-08-05T07:35:59;5.68;;;3.20;;
58360;SDS011;44164;44.954;10.068;2022-08-05T07:38:26;5.10;;;3.20;;
58360;SDS011;44164;44.954;10.068;2022-08-05T07:40:52;5.07;;;3.17;;
58360;SDS011;44164;44.954;10.068;2022-08-05T07:43:18;3.72;;;2.88;;
58360;SDS011;44164;44.954;10.068;2022-08-05T07:45:44;6.50;;;3.20;;
58360;SDS011;44164;44.954;10.068;2022-08-05T07:48:10;4.90;;;3.58;;
58360;SDS011;44164;44.954;10.068;2022-08-05T07:50:37;4.75;;;3.03;;
58360;SDS011;44164;44.954;10.068;2022-08-05T07:53:03;6.20;;;3.70;;
58360;SDS011;44164;44.954;10.068;2022-08-05T07:55:29;6.05;;;3.00;;
58360;SDS011;44164;44.954;10.068;2022-08-05T07:57:56;6.60;;;3.30;;
58360;SDS011;44164;44.954;10.068;2022-08-05T08:00:23;4.22;;;2.83;;
58360;SDS011;44164;44.954;10.068;2022-08-05T08:02:50;3.67;;;3.20;;
58360;SDS011;44164;44.954;10.068;2022-08-05T08:05:16;4.60;;;2.63;;
58360;SDS011;44164;44.954;10.068;2022-08-05T08:07:42;5.13;;;2.67;;
58360;SDS011;44164;44.954;10.068;2022-08-05T08:10:08;5.20;;;2.83;;
58360;SDS011;44164;44.954;10.068;2022-08-05T08:12:34;4.68;;;2.80;;
58360;SDS011;44164;44.954;10.068;2022-08-05T08:15:00;4.05;;;2.78;;
58360;SDS011;44164;44.954;10.068;2022-08-05T08:17:27;5.28;;;2.75;;
58360;SDS011;44164;44.954;10.068;2022-08-05T08:19:53;6.32;;;3.40;;
58360;SDS011;44164;44.954;10.068;2022-08-05T08:22:23;4.72;;;3.05;;
58360;SDS011;44164;44.954;10.068;2022-08-05T08:24:51;6.28;;;3.30;;
58360;SDS011;44164;44.954;10.068;2022-08-05T08:27:18;3.70;;;2.90;;
58360;SDS011;44164;44.954;10.068;2022-08-05T08:29:44;4.78;;;3.28;;
58360;SDS011;44164;44.954;10.068;2022-08-05T08:32:10;6.78;;;2.53;;
58360;SDS011;44164;44.954;10.068;2022-08-05T08:34:36;4.75;;;3.22;;
58360;SDS011;44164;44.954;10.068;2022-08-05T08:37:02;7.35;;;2.85;;
58360;SDS011;44164;44.954;10.068;2022-08-05T08:39:28;5.72;;;2.67;;
58360;SDS011;44164;44.954;10.068;2022-08-05T08:41:54;4.65;;;2.80;;
58360;SDS011;44164;44.954;10.068;2022-08-05T08:44:22;3.93;;;2.77;;
58360;SDS011;44164;44.954;10.068;2022-08-05T08:46:50;3.63;;;2.45;;
58360;SDS011;44164;44.954;10.068;2022-08-05T08:49:18;4.22;;;2.90;;
58360;SDS011;44164;44.954;10.068;2022-08-05T08:51:46;3.85;;;2.80;;
58360;SDS011;44164;44.954;10.068;2022-08-05T08:54:24;4.60;;;2.78;;
58360;SDS011;44164;44.954;10.068;2022-08-05T08:56:50;2.92;;;2.20;;
58360;SDS011;44164;44.954;10.068;2022-08-05T08:59:17;3.97;;;2.30;;
58360;SDS011;44164;44.954;10.068;2022-08-05T09:01:44;3.45;;;2.63;;
58360;SDS011;44164;44.954;10.068;2022-08-05T09:04:11;2.95;;;2.20;;
58360;SDS011;44164;44.954;10.068;2022-08-05T09:06:38;3.42;;;2.63;;
58360;SDS011;44164;44.954;10.068;2022-08-05T09:09:04;3.78;;;2.78;;
58360;SDS011;44164;44.954;10.068;2022-08-05T09:11:33;4.95;;;2.70;;
58360;SDS011;44164;44.954;10.068;2022-08-05T09:14:01;4.43;;;2.50;;
58360;SDS011;44164;44.954;10.068;2022-08-05T09:16:28;5.10;;;2.70;;
58360;SDS011;44164;44.954;10.068;2022-08-05T09:18:54;3.80;;;2.90;;
58360;SDS011;44164;44.954;10.068;2022-08-05T09:21:20;4.90;;;2.38;;
58360;SDS011;44164;44.954;10.068;2022-08-05T09:24:02;3.83;;;2.67;;
58360;SDS011;44164;44.954;10.068;2022-08-05T09:26:30;2.80;;;2.38;;
58360;SDS011;44164;44.954;10.068;2022-08-05T09:28:59;3.45;;;2.60;;
58360;SDS011;44164;44.954;10.068;2022-08-05T09:31:29;5.45;;;2.22;;
58360;SDS011;44164;44.954;10.068;2022-08-05T09:33:57;4.72;;;2.72;;
58360;SDS011;44164;44.954;10.068;2022-08-05T09:36:37;5.10;;;2.40;;
58360;SDS011;44164;44.954;10.068;2022-08-05T09:39:07;3.65;;;2.53;;
58360;SDS011;44164;44.954;10.068;2022-08-05T09:41:53;4.18;;;2.45;;
58360;SDS011;44164;44.954;10.068;2022-08-05T09:47:13;6.72;;;2.40;;
58360;SDS011;44164;44.954;10.068;2022-08-05T09:49:41;2.58;;;2.25;;
58360;SDS011;44164;44.954;10.068;2022-08-05T09:52:16;2.80;;;2.13;;
58360;SDS011;44164;44.954;10.068;2022-08-05T09:55:34;7.50;;;2.78;;
58360;SDS011;44164;44.954;10.068;2022-08-05T09:57:37;2.83;;;2.30;;
58360;SDS011;44164;44.954;10.068;2022-08-05T10:00:42;4.70;;;2.80;;
58360;SDS011;44164;44.954;10.068;2022-08-05T10:03:00;2.88;;;2.30;;
58360;SDS011;44164;44.954;10.068;2022-08-05T10:05:34;2.65;;;2.17;;
58360;SDS011;44164;44.954;10.068;2022-08-05T10:08:01;3.28;;;2.40;;
58360;SDS011;44164;44.954;10.068;2022-08-05T10:13:03;2.78;;;2.22;;
58360;SDS011;44164;44.954;10.068;2022-08-05T10:15:37;3.22;;;2.75;;
58360;SDS011;44164;44.954;10.068;2022-08-05T10:20:35;3.55;;;2.33;;
58360;SDS011;44164;44.954;10.068;2022-08-05T10:23:03;3.97;;;2.10;;
58360;SDS011;44164;44.954;10.068;2022-08-05T10:25:29;4.40;;;2.28;;
58360;SDS011;44164;44.954;10.068;2022-08-05T10:27:56;2.72;;;1.80;;
58360;SDS011;44164;44.954;10.068;2022-08-05T10:30:22;3.97;;;2.42;;
58360;SDS011;44164;44.954;10.068;2022-08-05T10:32:49;4.35;;;2.20;;
58360;SDS011;44164;44.954;10.068;2022-08-05T10:35:15;2.90;;;1.98;;
58360;SDS011;44164;44.954;10.068;2022-08-05T10:37:41;3.38;;;2.25;;
58360;SDS011;44164;44.954;10.068;2022-08-05T10:40:13;3.10;;;2.20;;
58360;SDS011;44164;44.954;10.068;2022-08-05T10:42:52;3.58;;;2.38;;
58360;SDS011;44164;44.954;10.068;2022-08-05T10:45:25;3.15;;;2.33;;
58360;SDS011;44164;44.954;10.068;2022-08-05T10:47:53;4.20;;;2.38;;
58360;SDS011;44164;44.954;10.068;2022-08-05T10:50:19;3.40;;;2.25;;
58360;SDS011;44164;44.954;10.068;2022-08-05T10:52:47;2.97;;;2.60;;
58360;SDS011;44164;44.954;10.068;2022-08-05T10:55:22;5.00;;;2.53;;
58360;SDS011;44164;44.954;10.068;2022-08-05T10:58:04;6.32;;;2.28;;
58360;SDS011;44164;44.954;10.068;2022-08-05T11:00:32;6.35;;;2.60;;
58360;SDS011;44164;44.954;10.068;2022-08-05T11:03:07;4.50;;;2.10;;
58360;SDS011;44164;44.954;10.068;2022-08-05T11:05:35;2.87;;;2.47;;
58360;SDS011;44164;44.954;10.068;2022-08-05T11:08:02;4.72;;;2.40;;
58360;SDS011;44164;44.954;10.068;2022-08-05T11:10:34;4.75;;;2.40;;
58360;SDS011;44164;44.954;10.068;2022-08-05T11:13:02;4.40;;;2.28;;
58360;SDS011;44164;44.954;10.068;2022-08-05T11:15:33;4.35;;;2.50;;
58360;SDS011;44164;44.954;10.068;2022-08-05T11:20:43;3.90;;;2.67;;
58360;SDS011;44164;44.954;10.068;2022-08-05T11:26:05;5.05;;;2.53;;
58360;SDS011;44164;44.954;10.068;2022-08-05T11:36:04;6.25;;;2.13;;
58360;SDS011;44164;44.954;10.068;2022-08-05T11:41:04;3.95;;;2.38;;
58360;SDS011;44164;44.954;10.068;2022-08-05T11:45:57;3.80;;;2.15;;
58360;SDS011;44164;44.954;10.068;2022-08-05T11:48:25;4.63;;;2.30;;
58360;SDS011;44164;44.954;10.068;2022-08-05T11:50:52;5.77;;;2.13;;
58360;SDS011;44164;44.954;10.068;2022-08-05T11:53:19;6.20;;;2.07;;
58360;SDS011;44164;44.954;10.068;2022-08-05T11:55:58;3.92;;;2.30;;
58360;SDS011;44164;44.954;10.068;2022-08-05T11:58:39;5.60;;;2.17;;
58360;SDS011;44164;44.954;10.068;2022-08-05T12:01:14;2.38;;;1.92;;
58360;SDS011;44164;44.954;10.068;2022-08-05T12:03:52;2.88;;;2.20;;
58360;SDS011;44164;44.954;10.068;2022-08-05T12:06:20;2.92;;;2.00;;
58360;SDS011;44164;44.954;10.068;2022-08-05T12:08:52;4.05;;;2.17;;
58360;SDS011;44164;44.954;10.068;2022-08-05T12:11:27;2.30;;;1.75;;
58360;SDS011;44164;44.954;10.068;2022-08-05T12:13:59;3.72;;;2.15;;
58360;SDS011;44164;44.954;10.068;2022-08-05T12:16:27;3.60;;;2.13;;
58360;SDS011;44164;44.954;10.068;2022-08-05T12:18:54;5.10;;;2.38;;
58360;SDS011;44164;44.954;10.068;2022-08-05T12:21:24;4.45;;;1.90;;
58360;SDS011;44164;44.954;10.068;2022-08-05T12:26:28;3.88;;;2.30;;
58360;SDS011;44164;44.954;10.068;2022-08-05T12:29:17;5.28;;;2.28;;
58360;SDS011;44164;44.954;10.068;2022-08-05T12:31:55;2.92;;;2.15;;
58360;SDS011;44164;44.954;10.068;2022-08-05T12:34:23;3.38;;;2.17;;
58360;SDS011;44164;44.954;10.068;2022-08-05T12:36:55;4.10;;;2.00;;
58360;SDS011;44164;44.954;10.068;2022-08-05T12:39:25;6.50;;;2.40;;
58360;SDS011;44164;44.954;10.068;2022-08-05T12:42:00;4.30;;;2.20;;
58360;SDS011;44164;44.954;10.068;2022-08-05T12:44:27;3.78;;;1.75;;
58360;SDS011;44164;44.954;10.068;2022-08-05T12:46:54;3.80;;;1.92;;
58360;SDS011;44164;44.954;10.068;2022-08-05T12:49:20;3.30;;;2.00;;
58360;SDS011;44164;44.954;10.068;2022-08-05T12:51:51;3.88;;;1.60;;
58360;SDS011;44164;44.954;10.068;2022-08-05T12:54:26;4.20;;;1.80;;
58360;SDS011;44164;44.954;10.068;2022-08-05T12:56:57;2.63;;;1.85;;
58360;SDS011;44164;44.954;10.068;2022-08-05T13:02:05;3.70;;;1.90;;
58360;SDS011;44164;44.954;10.068;2022-08-05T13:04:33;3.10;;;1.90;;
58360;SDS011;44164;44.954;10.068;2022-08-05T13:07:01;2.67;;;1.88;;
58360;SDS011;44164;44.954;10.068;2022-08-05T13:09:37;4.57;;;2.28;;
58360;SDS011;44164;44.954;10.068;2022-08-05T13:12:11;4.70;;;2.10;;
58360;SDS011;44164;44.954;10.068;2022-08-05T13:14:39;4.10;;;2.00;;
58360;SDS011;44164;44.954;10.068;2022-08-05T13:19:59;4.90;;;2.20;;
58360;SDS011;44164;44.954;10.068;2022-08-05T13:22:50;6.28;;;2.40;;
58360;SDS011;44164;44.954;10.068;2022-08-05T13:25:17;4.60;;;1.58;;
58360;SDS011;44164;44.954;10.068;2022-08-05T13:27:48;3.38;;;1.77;;
58360;SDS011;44164;44.954;10.068;2022-08-05T13:30:16;5.00;;;2.05;;
58360;SDS011;44164;44.954;10.068;2022-08-05T13:32:44;3.42;;;1.90;;
58360;SDS011;44164;44.954;10.068;2022-08-05T13:35:14;2.63;;;1.95;;
58360;SDS011;44164;44.954;10.068;2022-08-05T13:37:41;4.87;;;2.00;;
58360;SDS011;44164;44.954;10.068;2022-08-05T13:40:07;4.57;;;1.80;;
58360;SDS011;44164;44.954;10.068;2022-08-05T13:42:34;4.80;;;2.10;;
58360;SDS011;44164;44.954;10.068;2022-08-05T13:45:00;3.65;;;2.15;;
58360;SDS011;44164;44.954;10.068;2022-08-05T13:47:27;4.45;;;2.10;;
58360;SDS011;44164;44.954;10.068;2022-08-05T13:49:53;4.30;;;2.08;;
58360;SDS011;44164;44.954;10.068;2022-08-05T13:52:23;5.53;;;2.42;;
58360;SDS011;44164;44.954;10.068;2022-08-05T13:54:51;2.65;;;1.55;;
58360;SDS011;44164;44.954;10.068;2022-08-05T13:57:18;3.95;;;1.90;;
58360;SDS011;44164;44.954;10.068;2022-08-05T13:59:44;4.25;;;2.20;;
58360;SDS011;44164;44.954;10.068;2022-08-05T14:02:11;5.60;;;1.80;;
58360;SDS011;44164;44.954;10.068;2022-08-05T14:04:40;4.40;;;1.70;;
58360;SDS011;44164;44.954;10.068;2022-08-05T14:07:32;5.30;;;2.08;;
58360;SDS011;44164;44.954;10.068;2022-08-05T14:10:04;2.45;;;1.83;;
58360;SDS011;44164;44.954;10.068;2022-08-05T14:12:40;3.22;;;1.95;;
58360;SDS011;44164;44.954;10.068;2022-08-05T14:15:07;2.75;;;1.77;;
58360;SDS011;44164;44.954;10.068;2022-08-05T14:17:33;3.97;;;2.05;;
58360;SDS011;44164;44.954;10.068;2022-08-05T14:20:00;4.20;;;1.80;;
58360;SDS011;44164;44.954;10.068;2022-08-05T14:22:26;2.50;;;1.90;;
58360;SDS011;44164;44.954;10.068;2022-08-05T14:24:52;3.13;;;1.98;;
58360;SDS011;44164;44.954;10.068;2022-08-05T14:27:18;3.13;;;2.22;;
58360;SDS011;44164;44.954;10.068;2022-08-05T14:29:44;2.78;;;1.70;;
58360;SDS011;44164;44.954;10.068;2022-08-05T14:32:10;3.33;;;1.95;;
58360;SDS011;44164;44.954;10.068;2022-08-05T14:34:36;3.67;;;1.80;;
58360;SDS011;44164;44.954;10.068;2022-08-05T14:37:03;2.92;;;1.88;;
58360;SDS011;44164;44.954;10.068;2022-08-05T14:39:30;3.17;;;1.70;;
58360;SDS011;44164;44.954;10.068;2022-08-05T14:41:57;3.20;;;2.03;;
58360;SDS011;44164;44.954;10.068;2022-08-05T14:44:23;2.60;;;1.77;;
58360;SDS011;44164;44.954;10.068;2022-08-05T14:46:49;2.58;;;1.80;;
58360;SDS011;44164;44.954;10.068;2022-08-05T14:49:15;3.83;;;1.90;;
58360;SDS011;44164;44.954;10.068;2022-08-05T14:51:41;4.47;;;2.00;;
58360;SDS011;44164;44.954;10.068;2022-08-05T14:54:08;3.63;;;1.85;;
58360;SDS011;44164;44.954;10.068;2022-08-05T14:56:34;3.33;;;1.98;;
58360;SDS011;44164;44.954;10.068;2022-08-05T14:59:00;3.10;;;1.77;;
58360;SDS011;44164;44.954;10.068;2022-08-05T15:01:27;3.42;;;2.15;;
58360;SDS011;44164;44.954;10.068;2022-08-05T15:03:53;3.58;;;1.67;;
58360;SDS011;44164;44.954;10.068;2022-08-05T15:06:19;7.63;;;1.80;;
58360;SDS011;44164;44.954;10.068;2022-08-05T15:08:45;4.13;;;1.90;;
58360;SDS011;44164;44.954;10.068;2022-08-05T15:11:12;2.45;;;1.73;;
58360;SDS011;44164;44.954;10.068;2022-08-05T15:13:38;4.22;;;1.85;;
58360;SDS011;44164;44.954;10.068;2022-08-05T15:16:04;4.13;;;1.75;;
58360;SDS011;44164;44.954;10.068;2022-08-05T15:18:30;2.85;;;1.58;;
58360;SDS011;44164;44.954;10.068;2022-08-05T15:20:58;2.72;;;1.60;;
58360;SDS011;44164;44.954;10.068;2022-08-05T15:23:25;2.55;;;1.58;;
58360;SDS011;44164;44.954;10.068;2022-08-05T15:25:51;3.30;;;1.80;;
58360;SDS011;44164;44.954;10.068;2022-08-05T15:28:17;4.70;;;1.77;;
58360;SDS011;44164;44.954;10.068;2022-08-05T15:30:43;3.33;;;2.20;;